Aeroporto :
LOGIN :

Iscrizione | Disclaimer

   EN    FR    IT 

 










Sommario :    VFR   VFR Marginale   IFR   IFR Intensivo   IFR Molto Intensivo
Visibilità : 
Base nubi : 
>= 8 km
>= 3000ft
5 / 8 km
1000 / 3000 ft
1500m / 5 km
500 / 1000 ft
800 / 1500m
200 / 500 ft
< 800m
< 200 ft
Simboli :   Temporali  Nebbia  Neve Forte  Precipitazioni Forti  Vento > 20 kt
SIGMETs :   Varie  Temporali  Ghiacco  Turbolenza  Onda orograficha  Ceneri Vulcaniche






- Altitudine del aeroporto : 1487 ft
- Codice IATA : MUC


EDDM - München Franz Josef Strauss

ULTIMO METAR :
  • 040420Z 06004KT 030V090 8000 FEW004 M05/M05 Q0992 R08R/690195 TEMPO 4000 BR BKN003

METARs OBSOLETI :
  • 040350Z 07004KT 050V110 8000 FEW004 M05/M06 Q0992 R08R/690195 TEMPO 4000 BR BKN003
  • 040320Z 06005KT 8000 FEW004 M05/M06 Q0993 R08R/690195 TEMPO 4000 BR BKN003
  • 040250Z 09004KT CAVOK M05/M06 Q0993 R08R/690195 TEMPO 4000 BR BKN003
  • 040220Z 07004KT CAVOK M05/M06 Q0994 R08R/690195 NOSIG
  • 040150Z 05004KT 340V090 CAVOK M04/M05 Q0994 R08R/690195 NOSIG

TAF TAF EDDM
Valido dal 04 a 00 ore il 05 a 06 ore UTC


032300Z 0400/0506 08007KT CAVOK
BECMG 0500/0503 25006KT



MetMap, La meteo Aeronautica in un colpo d'occhio ! - Copyright ORBIFLY Dicembre 2007 - Disclaimer

ORBIFLY MET'MAP TEAM :

Programmazione e sviluppo : Alexandra Zaïnal
Concezione : Baudouin d'Aumeries
Aiuto per la programmazione : Marc-Olivier Méhu
Supporto tecnico e logistico : Manuel Goepfert
Aiuto per la traduzione : Arnaldo La Scala

Contatto : metmap@orbifly.com




FONTI E CREDITI :

   NOAA